Time;durP1;ratioP1;P1;durP2;ratioP2;P2;SDS_P1;SDS_P2;PMS_P1;PMS_P2;Temp;Humidity;BMP_temperature;BMP_pressure;BME280_temperature;BME280_humidity;BME280_pressure;Samples;Min_cycle;Max_cycle;Signal;HPM_P1;HPM_P2
2023/03/02 00:00:52;;;;;;;;;;;;;;;3.81;75.89;100240.50;5029151;28;20269;-65
2023/03/02 00:03:17;;;;;;;;;;;;;;;3.85;75.68;100237.00;5028356;28;19917;-65
2023/03/02 00:05:46;;;;;;;;;;;;;;;3.85;75.14;100229.09;5027169;28;19972;-64
2023/03/02 00:08:12;;;;;;;;;;;;;;;3.88;75.53;100226.47;5024865;28;20023;-64
2023/03/02 00:10:37;;;;;;;;;;;;;;;3.91;75.39;100241.34;5027487;28;19963;-65
2023/03/02 00:13:03;;;;;;;;;;;;;;;3.90;75.50;100234.34;5027769;28;20337;-65
2023/03/02 00:15:28;;;;;;;;;;;;;;;3.89;74.99;100232.56;5027330;28;19924;-65
2023/03/02 00:17:54;;;;;;;;;;;;;;;3.92;75.16;100229.97;5028188;28;19917;-65
2023/03/02 00:20:19;;;;;;;;;;;;;;;3.93;75.08;100234.31;5024170;28;19932;-65
2023/03/02 00:22:45;;;;;;;;;;;;;;;3.93;74.91;100226.44;5026796;28;19917;-65
2023/03/02 00:25:11;;;;;;;;;;;;;;;3.86;75.31;100222.94;5018007;28;19928;-65
2023/03/02 00:27:36;;;;;;;;;;;;;;;3.90;75.21;100218.56;5029636;28;19920;-65
2023/03/02 00:30:03;;;;;;;;;;;;;;;3.88;74.81;100212.41;5029726;28;20289;-64
2023/03/02 00:32:28;;;;;;;;;;;;;;;3.87;74.97;100221.19;5029438;28;19917;-64
2023/03/02 00:34:53;;;;;;;;;;;;;;;3.86;75.21;100219.44;5030046;28;19917;-64
2023/03/02 00:37:19;;;;;;;;;;;;;;;3.78;75.34;100218.56;5029259;28;19916;-65
2023/03/02 00:39:45;;;;;;;;;;;;;;;3.74;75.76;100227.38;5026465;28;19932;-65
2023/03/02 00:42:10;;;;;;;;;;;;;;;3.69;76.11;100218.59;4992584;28;19920;-64
2023/03/02 00:44:35;;;;;;;;;;;;;;;3.69;76.52;100215.97;5021650;28;19925;-65
2023/03/02 00:47:00;;;;;;;;;;;;;;;3.77;76.46;100216.84;5029910;28;19917;-65
2023/03/02 00:49:27;;;;;;;;;;;;;;;3.60;76.43;100221.25;5028756;28;19921;-64
2023/03/02 00:51:52;;;;;;;;;;;;;;;3.55;77.10;100220.38;5029414;28;19923;-65
2023/03/02 00:54:17;;;;;;;;;;;;;;;3.57;77.39;100208.09;5028412;28;19921;-65
2023/03/02 00:56:43;;;;;;;;;;;;;;;3.54;77.04;100206.34;5029790;28;19917;-65
2023/03/02 00:59:27;;;;;;;;;;;;;;;3.51;77.71;100202.88;5029226;28;19928;-65
2023/03/02 01:01:56;;;;;;;;;;;;;;;3.47;77.78;100201.09;5029010;28;19921;-64
2023/03/02 01:04:52;;;;;;;;;;;;;;;3.43;77.54;100192.34;5028840;28;19928;-64
2023/03/02 01:07:19;;;;;;;;;;;;;;;3.45;77.61;100192.34;4996594;28;20452;-64
2023/03/02 01:09:44;;;;;;;;;;;;;;;3.42;78.06;100200.22;5021058;28;19921;-65
2023/03/02 01:12:10;;;;;;;;;;;;;;;3.39;78.02;100194.97;5028865;28;19960;-65
2023/03/02 01:14:37;;;;;;;;;;;;;;;3.41;77.44;100190.59;5029683;28;19925;-64
2023/03/02 01:17:04;;;;;;;;;;;;;;;3.39;77.66;100192.34;5028897;28;20418;-64
2023/03/02 01:19:29;;;;;;;;;;;;;;;3.39;77.66;100182.72;5029941;28;19925;-64
2023/03/02 01:21:54;;;;;;;;;;;;;;;3.30;77.31;100179.19;5029423;28;19913;-64
2023/03/02 01:24:20;;;;;;;;;;;;;;;3.27;77.78;100187.97;5028784;28;20351;-64
2023/03/02 01:26:45;;;;;;;;;;;;;;;3.29;78.11;100174.84;5029109;28;20024;-64
2023/03/02 01:29:10;;;;;;;;;;;;;;;3.22;78.48;100179.22;5029154;28;19925;-64
2023/03/02 01:31:36;;;;;;;;;;;;;;;3.20;78.43;100180.09;5031871;28;19928;-64
2023/03/02 01:34:01;;;;;;;;;;;;;;;3.22;78.57;100179.22;5033308;28;19917;-64
2023/03/02 01:36:27;;;;;;;;;;;;;;;3.20;78.14;100180.09;5032023;28;19920;-64
2023/03/02 01:38:53;;;;;;;;;;;;;;;3.20;78.62;100180.09;5015266;28;19921;-65
2023/03/02 01:41:18;;;;;;;;;;;;;;;3.14;79.08;100169.59;5032903;28;20456;-65
2023/03/02 01:43:44;;;;;;;;;;;;;;;3.11;79.15;100172.22;5031677;28;20020;-64
2023/03/02 01:46:09;;;;;;;;;;;;;;;3.07;78.92;100168.72;5033003;28;20397;-65
2023/03/02 01:48:43;;;;;;;;;;;;;;;3.10;78.83;100173.13;5032227;28;19948;-64
2023/03/02 01:51:13;;;;;;;;;;;;;;;3.06;78.81;100159.09;5023599;28;19932;-64
2023/03/02 01:53:45;;;;;;;;;;;;;;;3.07;78.99;100159.94;5028543;28;19917;-64
2023/03/02 01:56:12;;;;;;;;;;;;;;;3.06;79.03;100155.59;5032481;28;19921;-65
2023/03/02 01:58:37;;;;;;;;;;;;;;;3.07;79.66;100152.06;5031398;28;19913;-65
2023/03/02 02:01:03;;;;;;;;;;;;;;;3.04;79.48;100144.19;5023979;28;19932;-65
2023/03/02 02:03:29;;;;;;;;;;;;;;;3.06;79.61;100145.06;5032170;28;19931;-64
2023/03/02 02:05:57;;;;;;;;;;;;;;;3.07;79.09;100152.06;5032555;28;20293;-65
2023/03/02 02:08:23;;;;;;;;;;;;;;;3.06;80.70;100147.69;5032582;28;19975;-65
2023/03/02 02:10:48;;;;;;;;;;;;;;;3.09;80.41;100145.06;5031890;28;20365;-64
2023/03/02 02:13:14;;;;;;;;;;;;;;;3.06;79.72;100156.47;5032507;28;19920;-65
2023/03/02 02:15:39;;;;;;;;;;;;;;;3.08;80.41;100145.94;5031457;28;19921;-65
2023/03/02 02:18:05;;;;;;;;;;;;;;;3.06;80.73;100139.81;5008084;28;19917;-65
2023/03/02 02:20:34;;;;;;;;;;;;;;;3.06;81.25;100139.81;5023045;28;19924;-64
2023/03/02 02:23:05;;;;;;;;;;;;;;;3.06;81.55;100126.69;5032190;28;20672;-65
2023/03/02 02:25:51;;;;;;;;;;;;;;;3.07;81.49;100128.41;5013170;28;19996;-65
2023/03/02 02:28:20;;;;;;;;;;;;;;;3.09;81.11;100134.56;5032178;28;19921;-65
2023/03/02 02:30:46;;;;;;;;;;;;;;;3.07;81.47;100138.94;5029842;28;19998;-64
2023/03/02 02:33:37;;;;;;;;;;;;;;;3.11;81.01;100132.81;5031964;28;20392;-65
2023/03/02 02:36:07;;;;;;;;;;;;;;;3.11;81.25;100127.56;5012234;28;20677;-65
2023/03/02 02:38:33;;;;;;;;;;;;;;;3.10;80.54;100131.06;5022312;28;19940;-65
2023/03/02 02:41:01;;;;;;;;;;;;;;;3.07;80.64;100128.41;5030614;28;19921;-65
2023/03/02 02:43:28;;;;;;;;;;;;;;;3.04;80.80;100123.16;5029050;28;19928;-65
2023/03/02 02:45:55;;;;;;;;;;;;;;;3.06;80.92;100124.06;5013845;28;19926;-65
2023/03/02 02:48:23;;;;;;;;;;;;;;;2.99;81.38;100128.44;5030527;28;20586;-64
2023/03/02 02:50:48;;;;;;;;;;;;;;;3.00;81.44;100124.91;5031628;28;20444;-66
2023/03/02 02:53:19;;;;;;;;;;;;;;;3.01;81.45;100131.06;5030705;28;19922;-65
2023/03/02 02:55:46;;;;;;;;;;;;;;;2.99;81.18;100135.44;5031367;28;20003;-64
2023/03/02 02:58:34;;;;;;;;;;;;;;;3.00;81.01;100137.22;5031370;28;19924;-64
2023/03/02 03:01:00;;;;;;;;;;;;;;;2.98;81.67;100131.06;5020762;28;19971;-66
2023/03/02 03:03:30;;;;;;;;;;;;;;;2.95;81.56;100131.06;5031631;28;19913;-65
2023/03/02 03:06:01;;;;;;;;;;;;;;;2.94;81.08;100129.31;5031031;28;20360;-65
2023/03/02 03:08:42;;;;;;;;;;;;;;;2.90;82.10;100131.06;5031477;28;20388;-63
2023/03/02 03:11:08;;;;;;;;;;;;;;;2.87;81.32;100135.47;5030827;28;19928;-64
2023/03/02 03:13:34;;;;;;;;;;;;;;;2.86;81.75;100125.81;5030987;28;20332;-64
2023/03/02 03:16:00;;;;;;;;;;;;;;;2.84;82.00;100132.81;5031423;28;19917;-65
2023/03/02 03:18:25;;;;;;;;;;;;;;;2.66;81.44;100092.56;5030629;28;19916;-64
2023/03/02 03:20:51;;;;;;;;;;;;;;;2.87;81.41;100130.22;5030726;28;19924;-65
2023/03/02 03:23:16;;;;;;;;;;;;;;;2.85;82.02;100135.44;5030338;28;19925;-64
2023/03/02 03:25:41;;;;;;;;;;;;;;;2.87;81.51;100138.09;5030321;28;19925;-64
2023/03/02 03:28:06;;;;;;;;;;;;;;;2.82;82.12;100139.84;5030093;28;19917;-64
2023/03/02 03:30:32;;;;;;;;;;;;;;;2.85;81.71;100135.44;5029254;28;19925;-64
2023/03/02 03:32:57;;;;;;;;;;;;;;;2.79;82.45;100130.19;5030155;28;19917;-63
2023/03/02 03:35:22;;;;;;;;;;;;;;;2.83;82.44;100136.31;5030314;28;19921;-64
2023/03/02 03:37:48;;;;;;;;;;;;;;;2.84;82.36;100130.19;5029409;28;20024;-65
2023/03/02 03:40:13;;;;;;;;;;;;;;;2.80;82.36;100131.94;5030476;28;20519;-64
2023/03/02 03:42:39;;;;;;;;;;;;;;;2.80;81.75;100136.31;5030669;28;20520;-64
2023/03/02 03:45:05;;;;;;;;;;;;;;;2.79;82.27;100126.69;5013199;28;19922;-64
2023/03/02 03:47:31;;;;;;;;;;;;;;;2.77;81.75;100123.19;5027184;28;19971;-64
2023/03/02 03:49:56;;;;;;;;;;;;;;;2.72;82.36;100131.94;5030196;28;20549;-64
2023/03/02 03:52:29;;;;;;;;;;;;;;;2.70;82.67;100136.31;5029371;28;20273;-65
2023/03/02 03:54:55;;;;;;;;;;;;;;;2.66;82.52;100138.94;5024427;28;19914;-64
2023/03/02 03:57:20;;;;;;;;;;;;;;;2.68;82.42;100132.78;5011299;28;19924;-65
2023/03/02 03:59:45;;;;;;;;;;;;;;;2.64;82.47;100136.31;5027898;28;19924;-65
2023/03/02 04:02:11;;;;;;;;;;;;;;;2.64;82.97;100120.56;5030407;28;19921;-64
2023/03/02 04:04:36;;;;;;;;;;;;;;;2.64;82.63;100125.81;5029858;28;20023;-65
2023/03/02 04:07:01;;;;;;;;;;;;;;;2.62;82.59;100130.19;5030660;28;19917;-65
2023/03/02 04:09:27;;;;;;;;;;;;;;;2.61;82.61;100135.44;5028745;28;19924;-65
2023/03/02 04:11:54;;;;;;;;;;;;;;;2.58;83.00;100140.69;5030645;28;19921;-64
2023/03/02 04:14:21;;;;;;;;;;;;;;;2.59;83.32;100137.16;5030445;28;19917;-64
2023/03/02 04:16:46;;;;;;;;;;;;;;;2.55;84.29;100140.69;5023533;28;20651;-66
2023/03/02 04:19:12;;;;;;;;;;;;;;;2.57;83.80;100134.53;5029052;28;19953;-65
2023/03/02 04:21:38;;;;;;;;;;;;;;;2.59;83.19;100135.44;5030241;28;19948;-65
2023/03/02 04:24:03;;;;;;;;;;;;;;;2.55;82.81;100145.94;5029470;28;19951;-64
2023/03/02 04:26:29;;;;;;;;;;;;;;;2.50;83.46;100143.28;5029977;28;19925;-65
2023/03/02 04:28:54;;;;;;;;;;;;;;;2.51;83.16;100145.06;5027786;28;19917;-65
2023/03/02 04:31:19;;;;;;;;;;;;;;;2.47;82.86;100143.28;5029483;28;19944;-66
2023/03/02 04:33:44;;;;;;;;;;;;;;;2.45;83.47;100145.06;5030175;28;19967;-65
2023/03/02 04:36:10;;;;;;;;;;;;;;;2.45;83.85;100150.31;5029709;28;19917;-65
2023/03/02 04:38:35;;;;;;;;;;;;;;;2.47;84.20;100148.53;5029716;28;20355;-64
2023/03/02 04:41:01;;;;;;;;;;;;;;;2.46;83.98;100146.78;5023519;28;19917;-64
2023/03/02 04:43:26;;;;;;;;;;;;;;;2.46;83.64;100152.03;5029784;28;20416;-65
2023/03/02 04:45:52;;;;;;;;;;;;;;;2.48;84.37;100152.03;5029681;28;20280;-65
2023/03/02 04:48:17;;;;;;;;;;;;;;;2.42;83.99;100152.03;5029647;28;19945;-65
2023/03/02 04:50:43;;;;;;;;;;;;;;;2.40;84.82;100157.28;5029018;28;20305;-66
2023/03/02 04:53:08;;;;;;;;;;;;;;;2.42;84.20;100157.28;5029926;28;19933;-65
2023/03/02 04:55:33;;;;;;;;;;;;;;;2.42;84.62;100157.28;5028984;28;19924;-64
2023/03/02 04:57:58;;;;;;;;;;;;;;;2.39;84.65;100158.13;5029668;28;19921;-64
2023/03/02 05:00:24;;;;;;;;;;;;;;;2.35;85.18;100158.13;5029683;28;19920;-66
2023/03/02 05:02:49;;;;;;;;;;;;;;;2.33;85.24;100138.88;5028645;28;19913;-66
2023/03/02 05:05:16;;;;;;;;;;;;;;;2.30;85.48;100149.38;5033416;28;19936;-66
2023/03/02 05:07:43;;;;;;;;;;;;;;;2.30;85.48;100147.63;5033061;28;19932;-66
2023/03/02 05:10:09;;;;;;;;;;;;;;;2.29;84.79;100148.50;5033671;28;20376;-65
2023/03/02 05:12:53;;;;;;;;;;;;;;;2.26;85.38;100145.88;5032376;28;19971;-66
2023/03/02 05:15:18;;;;;;;;;;;;;;;2.24;84.83;100138.88;5033962;28;19913;-65
2023/03/02 05:17:44;;;;;;;;;;;;;;;2.20;85.31;100137.09;5033656;28;20091;-64
2023/03/02 05:20:10;;;;;;;;;;;;;;;2.21;85.27;100144.97;5032769;28;19921;-64
2023/03/02 05:22:37;;;;;;;;;;;;;;;2.23;86.14;100143.25;5033375;28;19917;-65
2023/03/02 05:25:02;;;;;;;;;;;;;;;2.21;85.77;100144.97;5033514;28;20335;-66
2023/03/02 05:27:28;;;;;;;;;;;;;;;2.23;85.03;100148.47;5032564;28;19921;-65
2023/03/02 05:29:53;;;;;;;;;;;;;;;2.21;84.89;100139.72;5033072;28;20356;-65
2023/03/02 05:32:18;;;;;;;;;;;;;;;2.24;85.17;100149.38;5032995;28;19913;-65
2023/03/02 05:34:43;;;;;;;;;;;;;;;2.14;85.98;100143.19;5032434;28;20000;-65
2023/03/02 05:37:09;;;;;;;;;;;;;;;2.15;86.01;100150.22;5033017;28;20292;-65
2023/03/02 05:39:34;;;;;;;;;;;;;;;2.14;85.57;100148.44;5033055;28;20004;-65
2023/03/02 05:41:59;;;;;;;;;;;;;;;2.14;85.93;100151.06;5032871;28;20210;-65
2023/03/02 05:44:24;;;;;;;;;;;;;;;2.15;85.66;100152.84;5032374;28;19917;-65
2023/03/02 05:46:50;;;;;;;;;;;;;;;2.14;84.67;100153.69;5031997;28;19917;-65
2023/03/02 05:49:15;;;;;;;;;;;;;;;2.14;85.50;100156.31;5032124;28;20234;-65
2023/03/02 05:51:40;;;;;;;;;;;;;;;2.08;85.28;100155.41;5030360;28;20778;-65
2023/03/02 05:54:05;;;;;;;;;;;;;;;2.08;85.08;100155.41;5022249;28;19921;-65
2023/03/02 05:56:31;;;;;;;;;;;;;;;2.08;85.88;100161.56;5030807;28;19966;-65
2023/03/02 05:58:56;;;;;;;;;;;;;;;2.05;85.52;100158.91;5032189;28;20291;-64
2023/03/02 06:01:21;;;;;;;;;;;;;;;2.06;86.42;100165.91;5031358;28;19940;-65
2023/03/02 06:03:47;;;;;;;;;;;;;;;2.06;85.91;100167.69;5032340;28;19936;-66
2023/03/02 06:06:15;;;;;;;;;;;;;;;2.05;85.48;100163.28;5031965;28;20273;-66
2023/03/02 06:08:42;;;;;;;;;;;;;;;2.04;86.04;100166.78;5032037;28;20039;-66
2023/03/02 06:11:08;;;;;;;;;;;;;;;2.05;86.13;100171.16;5032775;28;20321;-66
2023/03/02 06:13:33;;;;;;;;;;;;;;;2.03;85.72;100165.91;5030660;28;19979;-66
2023/03/02 06:15:59;;;;;;;;;;;;;;;2.10;86.02;100172.94;5027638;28;20015;-64
2023/03/02 06:18:24;;;;;;;;;;;;;;;2.10;85.78;100174.66;5030767;28;19917;-64
2023/03/02 06:20:49;;;;;;;;;;;;;;;2.06;86.01;100170.31;5031378;28;19921;-63
2023/03/02 06:23:15;;;;;;;;;;;;;;;2.11;86.45;100173.81;5029141;28;19921;-63
2023/03/02 06:25:46;;;;;;;;;;;;;;;2.10;85.43;100183.44;5032140;28;19925;-65
2023/03/02 06:28:12;;;;;;;;;;;;;;;2.15;85.38;100183.44;5031590;28;19924;-65
2023/03/02 06:30:37;;;;;;;;;;;;;;;2.18;85.02;100186.06;5032053;28;20328;-66
2023/03/02 06:33:02;;;;;;;;;;;;;;;2.25;85.74;100186.09;5031968;28;20030;-64
2023/03/02 06:35:28;;;;;;;;;;;;;;;2.31;84.61;100188.75;5031275;28;19917;-64
2023/03/02 06:37:53;;;;;;;;;;;;;;;2.36;84.73;100191.38;5027369;28;19921;-65
2023/03/02 06:40:20;;;;;;;;;;;;;;;2.42;84.64;100188.78;5030535;28;19952;-64
2023/03/02 06:42:45;;;;;;;;;;;;;;;2.45;83.61;100196.66;5028801;28;20368;-66
2023/03/02 06:45:10;;;;;;;;;;;;;;;2.53;83.13;100197.56;5012250;28;19921;-67
2023/03/02 06:47:36;;;;;;;;;;;;;;;2.61;82.86;100203.69;5030319;28;20646;-67
2023/03/02 06:50:01;;;;;;;;;;;;;;;2.72;83.15;100202.84;5031666;28;19923;-66
2023/03/02 06:52:27;;;;;;;;;;;;;;;2.72;82.25;100197.59;5030274;28;20011;-66
2023/03/02 06:54:52;;;;;;;;;;;;;;;2.87;82.52;100207.22;5031044;28;19939;-67
2023/03/02 06:57:18;;;;;;;;;;;;;;;2.96;81.77;100209.88;5031184;28;19921;-66
2023/03/02 06:59:43;;;;;;;;;;;;;;;3.06;81.21;100210.75;5012312;28;19928;-66
2023/03/02 07:02:09;;;;;;;;;;;;;;;3.14;80.42;100214.25;5012714;28;19928;-65
2023/03/02 07:04:34;;;;;;;;;;;;;;;3.21;80.03;100219.53;5031256;28;19913;-67
2023/03/02 07:07:00;;;;;;;;;;;;;;;3.19;80.41;100220.41;5030101;28;19951;-66
2023/03/02 07:09:25;;;;;;;;;;;;;;;3.18;79.05;100213.41;5028933;28;19924;-66
2023/03/02 07:11:50;;;;;;;;;;;;;;;3.34;79.62;100225.66;5030117;28;19921;-66
2023/03/02 07:14:15;;;;;;;;;;;;;;;3.84;80.99;100224.69;5012301;28;19971;-66
2023/03/02 07:16:41;;;;;;;;;;;;;;;5.03;74.96;100220.59;5026267;28;20461;-66
2023/03/02 07:19:10;;;;;;;;;;;;;;;5.99;68.90;100226.81;5028694;28;19917;-67
2023/03/02 07:21:35;;;;;;;;;;;;;;;6.39;63.79;100225.47;5030489;28;19928;-67
2023/03/02 07:24:00;;;;;;;;;;;;;;;6.92;62.95;100220.28;5030682;28;20296;-66
2023/03/02 07:26:25;;;;;;;;;;;;;;;7.69;59.87;100222.53;5029922;28;19928;-67
2023/03/02 07:28:51;;;;;;;;;;;;;;;8.65;54.86;100224.25;5012018;28;19917;-65
2023/03/02 07:31:16;;;;;;;;;;;;;;;9.40;52.67;100221.56;5027609;28;19928;-65
2023/03/02 07:33:42;;;;;;;;;;;;;;;9.81;49.88;100227.59;5019052;28;19918;-66
2023/03/02 07:36:07;;;;;;;;;;;;;;;10.31;48.76;100232.44;5024470;28;20353;-65
2023/03/02 07:38:33;;;;;;;;;;;;;;;11.06;47.88;100228.41;5030432;28;20238;-65
2023/03/02 07:40:58;;;;;;;;;;;;;;;11.03;46.29;100225.84;5030390;28;20003;-65
2023/03/02 07:43:25;;;;;;;;;;;;;;;11.44;45.89;100223.63;5028503;28;20273;-65
2023/03/02 07:45:50;;;;;;;;;;;;;;;11.66;45.30;100227.34;5030302;28;19921;-66
2023/03/02 07:48:16;;;;;;;;;;;;;;;11.59;44.65;100228.47;5029146;28;19924;-67
2023/03/02 07:50:41;;;;;;;;;;;;;;;11.39;45.26;100225.56;5012777;28;19971;-68
2023/03/02 07:53:06;;;;;;;;;;;;;;;11.00;46.35;100231.28;5024974;28;19925;-66
2023/03/02 07:55:32;;;;;;;;;;;;;;;11.21;45.29;100235.94;5026935;28;19921;-66
2023/03/02 07:57:57;;;;;;;;;;;;;;;11.67;44.52;100234.44;5028541;28;19917;-66
2023/03/02 08:00:22;;;;;;;;;;;;;;;11.52;45.63;100240.22;5022234;28;19922;-67
2023/03/02 08:02:48;;;;;;;;;;;;;;;11.80;45.01;100234.88;5028936;28;20730;-66
2023/03/02 08:05:15;;;;;;;;;;;;;;;12.14;43.65;100245.25;5028896;28;20642;-67
2023/03/02 08:07:42;;;;;;;;;;;;;;;12.14;43.59;100248.78;5030589;28;19921;-65
2023/03/02 08:10:08;;;;;;;;;;;;;;;12.20;43.92;100253.03;5029059;28;19928;-64
2023/03/02 08:12:33;;;;;;;;;;;;;;;12.26;43.20;100248.34;5029100;28;19921;-65
2023/03/02 08:14:58;;;;;;;;;;;;;;;12.40;42.61;100254.06;5029286;28;19964;-66
2023/03/02 08:17:24;;;;;;;;;;;;;;;12.17;44.06;100258.47;5028373;28;19928;-66
2023/03/02 08:19:49;;;;;;;;;;;;;;;12.14;44.64;100254.09;5029300;28;20011;-67
2023/03/02 08:22:14;;;;;;;;;;;;;;;11.93;44.80;100260.19;5028050;28;19917;-66
2023/03/02 08:24:40;;;;;;;;;;;;;;;12.09;43.54;100255.22;5027450;28;20110;-66
2023/03/02 08:27:06;;;;;;;;;;;;;;;12.01;44.39;100257.28;5028454;28;19917;-66
2023/03/02 08:29:31;;;;;;;;;;;;;;;12.11;44.15;100259.53;5028348;28;19917;-66
2023/03/02 08:31:57;;;;;;;;;;;;;;;11.95;45.24;100271.66;5028704;28;19917;-66
2023/03/02 08:34:23;;;;;;;;;;;;;;;11.55;45.74;100272.09;5028813;28;19925;-66
2023/03/02 08:36:48;;;;;;;;;;;;;;;12.04;44.23;100266.03;5028026;28;19925;-67
2023/03/02 08:39:14;;;;;;;;;;;;;;;12.38;44.00;100276.38;5029238;28;19929;-66
2023/03/02 08:41:39;;;;;;;;;;;;;;;12.42;43.45;100265.53;5026994;28;20007;-67
2023/03/02 08:44:04;;;;;;;;;;;;;;;12.96;43.35;100268.81;5026781;28;19917;-66
2023/03/02 08:46:30;;;;;;;;;;;;;;;13.76;41.66;100260.28;5027780;28;19948;-66
2023/03/02 08:48:55;;;;;;;;;;;;;;;13.99;42.02;100260.19;5025335;28;19924;-67
2023/03/02 08:51:22;;;;;;;;;;;;;;;14.32;40.32;100257.88;5029446;28;19972;-66
2023/03/02 08:53:53;;;;;;;;;;;;;;;14.24;40.09;100255.53;5023245;28;20337;-68
2023/03/02 08:56:19;;;;;;;;;;;;;;;13.91;41.19;100256.09;5020723;28;19940;-67
2023/03/02 08:58:44;;;;;;;;;;;;;;;13.50;41.39;100259.59;5028875;28;19936;-66
2023/03/02 09:01:13;;;;;;;;;;;;;;;13.25;42.03;100259.72;5028432;28;19928;-66
2023/03/02 09:03:39;;;;;;;;;;;;;;;12.65;42.85;100262.91;5028410;28;19964;-66
2023/03/02 09:06:04;;;;;;;;;;;;;;;12.48;44.04;100268.00;5022160;28;20384;-66
2023/03/02 09:08:29;;;;;;;;;;;;;;;12.66;43.97;100259.31;5027847;28;19925;-67
2023/03/02 09:10:55;;;;;;;;;;;;;;;13.11;43.07;100265.59;5028845;28;19917;-67
2023/03/02 09:13:20;;;;;;;;;;;;;;;13.42;42.63;100259.06;5028342;28;20281;-66
2023/03/02 09:15:45;;;;;;;;;;;;;;;13.68;42.81;100258.84;5026851;28;19952;-66
2023/03/02 09:18:10;;;;;;;;;;;;;;;14.18;41.40;100257.59;5027670;28;20546;-66
2023/03/02 09:20:36;;;;;;;;;;;;;;;14.51;40.17;100259.69;5025802;28;19918;-66
2023/03/02 09:23:01;;;;;;;;;;;;;;;15.12;39.81;100257.72;5007329;28;19917;-67
2023/03/02 09:25:26;;;;;;;;;;;;;;;15.28;38.64;100263.25;5022736;28;19921;-65
2023/03/02 09:27:51;;;;;;;;;;;;;;;15.26;39.02;100265.13;5030452;28;19917;-65
2023/03/02 09:30:17;;;;;;;;;;;;;;;15.66;38.40;100264.97;5030256;28;19917;-65
2023/03/02 09:32:42;;;;;;;;;;;;;;;15.55;39.04;100268.16;5030205;28;19960;-66
2023/03/02 09:35:07;;;;;;;;;;;;;;;16.09;39.08;100269.06;5029360;28;19924;-66
2023/03/02 09:37:34;;;;;;;;;;;;;;;15.95;38.24;100259.00;5030277;28;19913;-65
2023/03/02 09:39:59;;;;;;;;;;;;;;;16.48;39.01;100264.34;5029927;28;19913;-66
2023/03/02 09:42:40;;;;;;;;;;;;;;;16.41;38.11;100270.94;5010986;28;19924;-66
2023/03/02 09:45:20;;;;;;;;;;;;;;;16.92;36.58;100273.56;5028476;28;20376;-66
2023/03/02 09:48:14;;;;;;;;;;;;;;;17.04;37.28;100262.16;5026224;28;20016;-65
2023/03/02 09:50:45;;;;;;;;;;;;;;;16.79;36.83;100264.44;5005418;28;19924;-66
2023/03/02 09:53:26;;;;;;;;;;;;;;;17.06;37.49;100271.00;5022040;28;19921;-66
2023/03/02 09:55:53;;;;;;;;;;;;;;;16.80;37.23;100263.50;5034184;28;19943;-66
2023/03/02 09:58:20;;;;;;;;;;;;;;;17.08;37.24;100269.13;5033382;28;19927;-66
2023/03/02 10:00:46;;;;;;;;;;;;;;;17.10;36.83;100272.56;5033862;28;19964;-66
2023/03/02 10:03:19;;;;;;;;;;;;;;;17.19;36.54;100269.38;5034214;28;19932;-67
2023/03/02 10:05:46;;;;;;;;;;;;;;;17.30;37.29;100269.63;5025312;28;19925;-66
2023/03/02 10:08:14;;;;;;;;;;;;;;;17.43;36.41;100259.94;5035666;28;20698;-67
2023/03/02 10:11:04;;;;;;;;;;;;;;;17.56;37.00;100265.53;5033899;28;19925;-66
2023/03/02 10:13:41;;;;;;;;;;;;;;;17.49;35.83;100270.38;5033943;28;20785;-67
2023/03/02 10:16:06;;;;;;;;;;;;;;;17.93;35.83;100266.00;5033998;28;19967;-66
2023/03/02 10:18:34;;;;;;;;;;;;;;;17.84;35.91;100261.13;5034311;28;19925;-67
2023/03/02 10:21:20;;;;;;;;;;;;;;;17.83;36.17;100259.41;5034566;28;19916;-67
2023/03/02 10:23:45;;;;;;;;;;;;;;;18.19;35.44;100267.13;5032584;28;20467;-66
2023/03/02 10:26:16;;;;;;;;;;;;;;;18.27;35.22;100259.47;5034612;28;19967;-67
2023/03/02 10:28:49;;;;;;;;;;;;;;;18.22;34.77;100262.44;5033783;28;20300;-66
2023/03/02 10:31:23;;;;;;;;;;;;;;;17.91;35.47;100265.22;5035334;28;19917;-67
2023/03/02 10:33:48;;;;;;;;;;;;;;;17.65;35.74;100273.94;5035327;28;20424;-67
2023/03/02 10:36:21;;;;;;;;;;;;;;;17.35;36.90;100270.25;5033904;28;19929;-67
2023/03/02 10:38:46;;;;;;;;;;;;;;;17.74;37.46;100265.31;5034593;28;19913;-67
2023/03/02 10:41:16;;;;;;;;;;;;;;;17.52;35.97;100267.53;5033616;28;20416;-67
2023/03/02 10:43:46;;;;;;;;;;;;;;;17.49;36.26;100273.09;5034776;28;20008;-67
2023/03/02 10:46:12;;;;;;;;;;;;;;;17.41;36.21;100278.00;5033536;28;20397;-67
2023/03/02 10:48:46;;;;;;;;;;;;;;;16.92;37.47;100277.13;5033083;28;19917;-66
2023/03/02 10:51:20;;;;;;;;;;;;;;;16.56;37.37;100275.53;5033046;28;19964;-67
2023/03/02 10:53:45;;;;;;;;;;;;;;;15.80;38.76;100276.75;5008355;28;19921;-67
2023/03/02 10:56:18;;;;;;;;;;;;;;;15.30;40.86;100282.81;5019447;28;20386;-67
2023/03/02 10:58:44;;;;;;;;;;;;;;;14.89;41.03;100274.00;5018763;28;19999;-66
2023/03/02 11:01:17;;;;;;;;;;;;;;;14.44;40.73;100268.06;5033830;28;19917;-67
2023/03/02 11:03:53;;;;;;;;;;;;;;;14.25;42.28;100280.50;5033863;28;19913;-67
2023/03/02 11:06:19;;;;;;;;;;;;;;;14.46;41.57;100285.78;5031518;28;19983;-67
2023/03/02 11:08:44;;;;;;;;;;;;;;;14.54;40.93;100274.75;5033051;28;19953;-66
2023/03/02 11:11:19;;;;;;;;;;;;;;;14.44;42.44;100268.06;5032988;28;19959;-67
2023/03/02 11:13:45;;;;;;;;;;;;;;;14.35;43.10;100272.00;5033545;28;20560;-67
2023/03/02 11:16:16;;;;;;;;;;;;;;;14.45;42.07;100272.47;5032478;28;20011;-67
2023/03/02 11:18:45;;;;;;;;;;;;;;;14.73;42.58;100270.28;5033501;28;19964;-67
2023/03/02 11:21:31;;;;;;;;;;;;;;;15.00;40.08;100263.69;5033647;28;19999;-66
2023/03/02 11:24:15;;;;;;;;;;;;;;;14.83;41.39;100262.69;5015825;28;19991;-67
2023/03/02 11:26:48;;;;;;;;;;;;;;;14.89;41.59;100265.97;5034981;28;19974;-67
2023/03/02 11:29:36;;;;;;;;;;;;;;;15.53;39.50;100272.72;5033281;28;20000;-67
2023/03/02 11:32:07;;;;;;;;;;;;;;;15.86;40.59;100269.34;5034137;28;20296;-67
2023/03/02 11:34:43;;;;;;;;;;;;;;;15.67;40.84;100267.56;5032847;28;20054;-66
2023/03/02 11:37:08;;;;;;;;;;;;;;;15.46;40.63;100267.75;5013392;28;19922;-67
2023/03/02 11:39:46;;;;;;;;;;;;;;;15.41;39.97;100264.44;5016843;28;19921;-67
2023/03/02 11:42:17;;;;;;;;;;;;;;;14.95;38.72;100268.38;5030694;28;19959;-67
2023/03/02 11:44:42;;;;;;;;;;;;;;;14.33;40.34;100270.34;5033977;28;19968;-66
2023/03/02 11:47:10;;;;;;;;;;;;;;;14.37;41.72;100271.94;5032173;28;20675;-67
2023/03/02 11:49:56;;;;;;;;;;;;;;;14.23;42.78;100263.63;5033252;28;19970;-66
2023/03/02 11:52:26;;;;;;;;;;;;;;;14.27;42.67;100265.25;5032905;28;19913;-66
2023/03/02 11:54:51;;;;;;;;;;;;;;;14.36;43.57;100265.72;5033821;28;19913;-67
2023/03/02 11:57:37;;;;;;;;;;;;;;;14.44;42.61;100268.06;5031937;28;19932;-66
2023/03/02 12:00:04;;;;;;;;;;;;;;;13.94;41.99;100258.63;5024546;28;19935;-66
2023/03/02 12:02:29;;;;;;;;;;;;;;;13.60;43.54;100260.97;5026349;28;19921;-66
2023/03/02 12:05:02;;;;;;;;;;;;;;;13.49;44.13;100263.22;5020505;28;19921;-66
2023/03/02 12:07:27;;;;;;;;;;;;;;;13.21;44.33;100264.31;5031817;28;19927;-66
2023/03/02 12:10:00;;;;;;;;;;;;;;;13.03;43.88;100254.34;5033149;28;19996;-65
2023/03/02 12:12:39;;;;;;;;;;;;;;;12.83;45.27;100267.53;5032496;28;19925;-66
2023/03/02 12:15:24;;;;;;;;;;;;;;;12.57;46.06;100259.66;5013058;28;19928;-66
2023/03/02 12:17:50;;;;;;;;;;;;;;;12.27;46.93;100260.78;5029854;28;20292;-66
2023/03/02 12:20:19;;;;;;;;;;;;;;;12.23;45.69;100259.13;5032874;28;19917;-66
2023/03/02 12:22:44;;;;;;;;;;;;;;;12.11;46.34;100259.53;5032568;28;19928;-67
2023/03/02 12:25:18;;;;;;;;;;;;;;;12.14;48.34;100258.59;5031538;28;19917;-66
2023/03/02 12:27:45;;;;;;;;;;;;;;;12.11;48.01;100258.69;5032655;28;20004;-66
2023/03/02 12:30:24;;;;;;;;;;;;;;;12.27;47.91;100266.09;5031271;28;19913;-66
2023/03/02 12:33:00;;;;;;;;;;;;;;;12.27;48.48;100260.78;5031593;28;19970;-66
2023/03/02 12:35:27;;;;;;;;;;;;;;;12.40;48.06;100261.19;5020173;28;20554;-66
2023/03/02 12:37:55;;;;;;;;;;;;;;;12.42;47.83;100262.03;5026738;28;19921;-67
2023/03/02 12:40:28;;;;;;;;;;;;;;;12.33;47.39;100252.53;5032627;28;19970;-66
2023/03/02 12:43:06;;;;;;;;;;;;;;;12.17;47.47;100254.03;5030730;28;20300;-65
2023/03/02 12:45:46;;;;;;;;;;;;;;;12.13;47.25;100252.38;5032491;28;19913;-66